sensor_id;sensor_type;location;lat;lon;timestamp;P1;durP1;ratioP1;P2;durP2;ratioP2
73650;SDS011;61944;52.538;6.108;2023-02-19T00:01:27;51.85;;;17.38;;
73650;SDS011;61944;52.538;6.108;2023-02-19T00:03:58;58.85;;;20.83;;
73650;SDS011;61944;52.538;6.108;2023-02-19T00:06:26;56.25;;;18.95;;
73650;SDS011;61944;52.538;6.108;2023-02-19T00:08:52;51.67;;;16.17;;
73650;SDS011;61944;52.538;6.108;2023-02-19T00:11:18;60.80;;;17.83;;
73650;SDS011;61944;52.538;6.108;2023-02-19T00:13:47;57.92;;;18.55;;
73650;SDS011;61944;52.538;6.108;2023-02-19T00:16:19;65.65;;;17.05;;
73650;SDS011;61944;52.538;6.108;2023-02-19T00:18:47;68.72;;;18.85;;
73650;SDS011;61944;52.538;6.108;2023-02-19T00:21:13;61.03;;;17.20;;
73650;SDS011;61944;52.538;6.108;2023-02-19T00:23:39;53.13;;;16.48;;
73650;SDS011;61944;52.538;6.108;2023-02-19T00:26:05;58.97;;;16.58;;
73650;SDS011;61944;52.538;6.108;2023-02-19T00:28:32;57.08;;;16.15;;
73650;SDS011;61944;52.538;6.108;2023-02-19T00:31:07;62.80;;;16.02;;
73650;SDS011;61944;52.538;6.108;2023-02-19T00:33:37;59.58;;;15.68;;
73650;SDS011;61944;52.538;6.108;2023-02-19T00:36:03;50.45;;;13.98;;
73650;SDS011;61944;52.538;6.108;2023-02-19T00:38:30;57.20;;;13.80;;
73650;SDS011;61944;52.538;6.108;2023-02-19T00:40:57;48.45;;;14.00;;
73650;SDS011;61944;52.538;6.108;2023-02-19T00:43:24;71.93;;;17.20;;
73650;SDS011;61944;52.538;6.108;2023-02-19T00:45:50;59.28;;;15.60;;
73650;SDS011;61944;52.538;6.108;2023-02-19T00:48:15;41.28;;;14.05;;
73650;SDS011;61944;52.538;6.108;2023-02-19T00:50:40;41.53;;;14.40;;
73650;SDS011;61944;52.538;6.108;2023-02-19T00:53:06;44.20;;;13.07;;
73650;SDS011;61944;52.538;6.108;2023-02-19T00:55:31;51.47;;;12.65;;
73650;SDS011;61944;52.538;6.108;2023-02-19T00:57:56;46.22;;;14.75;;
73650;SDS011;61944;52.538;6.108;2023-02-19T01:00:22;50.13;;;12.35;;
73650;SDS011;61944;52.538;6.108;2023-02-19T01:02:47;42.05;;;14.38;;
73650;SDS011;61944;52.538;6.108;2023-02-19T01:05:13;36.33;;;12.73;;
73650;SDS011;61944;52.538;6.108;2023-02-19T01:07:38;50.85;;;15.43;;
73650;SDS011;61944;52.538;6.108;2023-02-19T01:10:04;43.13;;;13.27;;
73650;SDS011;61944;52.538;6.108;2023-02-19T01:12:29;39.30;;;12.90;;
73650;SDS011;61944;52.538;6.108;2023-02-19T01:14:55;47.83;;;15.32;;
73650;SDS011;61944;52.538;6.108;2023-02-19T01:17:21;38.33;;;14.05;;
73650;SDS011;61944;52.538;6.108;2023-02-19T01:19:46;48.15;;;14.32;;
73650;SDS011;61944;52.538;6.108;2023-02-19T01:22:12;38.63;;;15.82;;
73650;SDS011;61944;52.538;6.108;2023-02-19T01:24:37;43.15;;;16.08;;
73650;SDS011;61944;52.538;6.108;2023-02-19T01:27:03;40.08;;;14.55;;
73650;SDS011;61944;52.538;6.108;2023-02-19T01:29:28;41.45;;;12.45;;
73650;SDS011;61944;52.538;6.108;2023-02-19T01:31:54;36.50;;;14.05;;
73650;SDS011;61944;52.538;6.108;2023-02-19T01:34:19;39.65;;;11.02;;
73650;SDS011;61944;52.538;6.108;2023-02-19T01:36:45;27.90;;;9.77;;
73650;SDS011;61944;52.538;6.108;2023-02-19T01:39:10;34.90;;;10.75;;
73650;SDS011;61944;52.538;6.108;2023-02-19T01:41:36;44.72;;;13.25;;
73650;SDS011;61944;52.538;6.108;2023-02-19T01:44:56;37.38;;;10.82;;
73650;SDS011;61944;52.538;6.108;2023-02-19T01:46:51;25.85;;;8.93;;
73650;SDS011;61944;52.538;6.108;2023-02-19T01:49:37;25.30;;;9.07;;
73650;SDS011;61944;52.538;6.108;2023-02-19T01:54:47;27.60;;;10.50;;
73650;SDS011;61944;52.538;6.108;2023-02-19T01:57:18;17.60;;;8.05;;
73650;SDS011;61944;52.538;6.108;2023-02-19T01:59:46;32.05;;;9.30;;
73650;SDS011;61944;52.538;6.108;2023-02-19T02:02:18;32.13;;;8.57;;
73650;SDS011;61944;52.538;6.108;2023-02-19T02:04:44;36.13;;;8.90;;
73650;SDS011;61944;52.538;6.108;2023-02-19T02:07:10;26.98;;;8.38;;
73650;SDS011;61944;52.538;6.108;2023-02-19T02:10:11;28.15;;;8.70;;
73650;SDS011;61944;52.538;6.108;2023-02-19T02:12:46;22.27;;;9.68;;
73650;SDS011;61944;52.538;6.108;2023-02-19T02:15:15;36.08;;;9.02;;
73650;SDS011;61944;52.538;6.108;2023-02-19T02:23:36;31.88;;;8.60;;
73650;SDS011;61944;52.538;6.108;2023-02-19T02:32:31;25.75;;;9.35;;
73650;SDS011;61944;52.538;6.108;2023-02-19T02:35:09;23.88;;;8.90;;
73650;SDS011;61944;52.538;6.108;2023-02-19T02:37:37;29.00;;;10.65;;
73650;SDS011;61944;52.538;6.108;2023-02-19T02:40:06;27.10;;;9.32;;
73650;SDS011;61944;52.538;6.108;2023-02-19T02:42:34;21.13;;;8.80;;
73650;SDS011;61944;52.538;6.108;2023-02-19T02:47:59;28.80;;;9.68;;
73650;SDS011;61944;52.538;6.108;2023-02-19T02:53:20;29.70;;;9.75;;
73650;SDS011;61944;52.538;6.108;2023-02-19T02:56:09;26.73;;;9.45;;
73650;SDS011;61944;52.538;6.108;2023-02-19T02:58:37;24.13;;;10.48;;
73650;SDS011;61944;52.538;6.108;2023-02-19T03:01:10;22.92;;;9.18;;
73650;SDS011;61944;52.538;6.108;2023-02-19T03:04:00;22.70;;;9.48;;
73650;SDS011;61944;52.538;6.108;2023-02-19T03:06:30;26.48;;;10.65;;
73650;SDS011;61944;52.538;6.108;2023-02-19T03:09:41;38.58;;;12.60;;
73650;SDS011;61944;52.538;6.108;2023-02-19T03:12:05;28.45;;;8.95;;
73650;SDS011;61944;52.538;6.108;2023-02-19T03:14:54;23.50;;;10.13;;
73650;SDS011;61944;52.538;6.108;2023-02-19T03:17:45;21.05;;;10.23;;
73650;SDS011;61944;52.538;6.108;2023-02-19T03:20:43;28.77;;;9.48;;
73650;SDS011;61944;52.538;6.108;2023-02-19T03:23:12;29.25;;;10.25;;
73650;SDS011;61944;52.538;6.108;2023-02-19T03:25:41;28.38;;;10.13;;
73650;SDS011;61944;52.538;6.108;2023-02-19T03:28:26;35.80;;;11.73;;
73650;SDS011;61944;52.538;6.108;2023-02-19T03:31:16;34.95;;;9.48;;
73650;SDS011;61944;52.538;6.108;2023-02-19T03:33:46;33.83;;;11.45;;
73650;SDS011;61944;52.538;6.108;2023-02-19T03:36:17;31.30;;;10.45;;
73650;SDS011;61944;52.538;6.108;2023-02-19T03:38:57;26.77;;;9.23;;
73650;SDS011;61944;52.538;6.108;2023-02-19T03:44:05;20.83;;;10.30;;
73650;SDS011;61944;52.538;6.108;2023-02-19T03:52:11;33.40;;;11.85;;
73650;SDS011;61944;52.538;6.108;2023-02-19T03:54:49;36.00;;;11.60;;
73650;SDS011;61944;52.538;6.108;2023-02-19T03:58:07;28.30;;;10.40;;
73650;SDS011;61944;52.538;6.108;2023-02-19T04:00:17;33.42;;;10.70;;
73650;SDS011;61944;52.538;6.108;2023-02-19T04:02:50;34.65;;;12.10;;
73650;SDS011;61944;52.538;6.108;2023-02-19T04:05:25;37.80;;;10.85;;
73650;SDS011;61944;52.538;6.108;2023-02-19T04:07:54;34.85;;;12.05;;
73650;SDS011;61944;52.538;6.108;2023-02-19T04:10:23;30.83;;;10.68;;
73650;SDS011;61944;52.538;6.108;2023-02-19T04:12:55;35.38;;;12.68;;
73650;SDS011;61944;52.538;6.108;2023-02-19T04:15:26;31.58;;;10.75;;
73650;SDS011;61944;52.538;6.108;2023-02-19T04:18:06;40.65;;;11.57;;
73650;SDS011;61944;52.538;6.108;2023-02-19T04:20:37;35.83;;;12.85;;
73650;SDS011;61944;52.538;6.108;2023-02-19T04:23:06;29.15;;;11.75;;
73650;SDS011;61944;52.538;6.108;2023-02-19T04:25:32;34.38;;;12.65;;
73650;SDS011;61944;52.538;6.108;2023-02-19T04:27:59;34.30;;;13.75;;
73650;SDS011;61944;52.538;6.108;2023-02-19T04:30:25;41.80;;;14.55;;
73650;SDS011;61944;52.538;6.108;2023-02-19T04:32:51;39.70;;;12.85;;
73650;SDS011;61944;52.538;6.108;2023-02-19T04:35:16;44.15;;;13.43;;
73650;SDS011;61944;52.538;6.108;2023-02-19T04:37:41;46.00;;;12.48;;
73650;SDS011;61944;52.538;6.108;2023-02-19T04:40:07;33.28;;;13.95;;
73650;SDS011;61944;52.538;6.108;2023-02-19T04:42:33;39.67;;;13.45;;
73650;SDS011;61944;52.538;6.108;2023-02-19T04:44:59;38.00;;;13.35;;
73650;SDS011;61944;52.538;6.108;2023-02-19T04:47:24;50.42;;;14.30;;
73650;SDS011;61944;52.538;6.108;2023-02-19T04:49:49;36.40;;;13.13;;
73650;SDS011;61944;52.538;6.108;2023-02-19T04:52:15;36.47;;;11.90;;
73650;SDS011;61944;52.538;6.108;2023-02-19T04:54:40;37.03;;;12.75;;
73650;SDS011;61944;52.538;6.108;2023-02-19T04:57:05;35.15;;;12.15;;
73650;SDS011;61944;52.538;6.108;2023-02-19T04:59:31;49.42;;;14.40;;
73650;SDS011;61944;52.538;6.108;2023-02-19T05:01:56;41.20;;;15.30;;
73650;SDS011;61944;52.538;6.108;2023-02-19T05:04:22;38.90;;;12.02;;
73650;SDS011;61944;52.538;6.108;2023-02-19T05:06:47;39.42;;;14.98;;
73650;SDS011;61944;52.538;6.108;2023-02-19T05:09:13;40.88;;;15.10;;
73650;SDS011;61944;52.538;6.108;2023-02-19T05:11:39;47.05;;;14.50;;
73650;SDS011;61944;52.538;6.108;2023-02-19T05:14:04;46.95;;;15.00;;
73650;SDS011;61944;52.538;6.108;2023-02-19T05:16:29;35.03;;;13.15;;
73650;SDS011;61944;52.538;6.108;2023-02-19T05:18:55;46.08;;;15.23;;
73650;SDS011;61944;52.538;6.108;2023-02-19T05:21:20;56.78;;;18.60;;
73650;SDS011;61944;52.538;6.108;2023-02-19T05:23:45;40.58;;;16.70;;
73650;SDS011;61944;52.538;6.108;2023-02-19T05:26:12;38.15;;;16.17;;
73650;SDS011;61944;52.538;6.108;2023-02-19T05:28:48;54.13;;;16.23;;
73650;SDS011;61944;52.538;6.108;2023-02-19T05:31:15;49.90;;;19.73;;
73650;SDS011;61944;52.538;6.108;2023-02-19T05:33:41;47.53;;;17.77;;
73650;SDS011;61944;52.538;6.108;2023-02-19T05:36:08;56.22;;;16.77;;
73650;SDS011;61944;52.538;6.108;2023-02-19T05:38:36;48.40;;;17.15;;
73650;SDS011;61944;52.538;6.108;2023-02-19T05:41:06;44.08;;;17.10;;
73650;SDS011;61944;52.538;6.108;2023-02-19T05:43:46;46.90;;;17.60;;
73650;SDS011;61944;52.538;6.108;2023-02-19T05:46:13;51.50;;;18.25;;
73650;SDS011;61944;52.538;6.108;2023-02-19T05:48:41;43.80;;;16.67;;
73650;SDS011;61944;52.538;6.108;2023-02-19T05:51:07;43.60;;;15.10;;
73650;SDS011;61944;52.538;6.108;2023-02-19T05:53:35;44.58;;;16.48;;
73650;SDS011;61944;52.538;6.108;2023-02-19T05:56:01;50.70;;;17.27;;
73650;SDS011;61944;52.538;6.108;2023-02-19T05:58:27;38.00;;;13.52;;
73650;SDS011;61944;52.538;6.108;2023-02-19T06:00:52;39.25;;;13.98;;
73650;SDS011;61944;52.538;6.108;2023-02-19T06:03:19;55.90;;;15.70;;
73650;SDS011;61944;52.538;6.108;2023-02-19T06:05:44;49.85;;;17.10;;
73650;SDS011;61944;52.538;6.108;2023-02-19T06:08:13;45.92;;;18.65;;
73650;SDS011;61944;52.538;6.108;2023-02-19T06:10:39;48.63;;;17.80;;
73650;SDS011;61944;52.538;6.108;2023-02-19T06:13:05;42.65;;;15.50;;
73650;SDS011;61944;52.538;6.108;2023-02-19T06:15:34;52.60;;;18.08;;
73650;SDS011;61944;52.538;6.108;2023-02-19T06:18:00;45.50;;;16.13;;
73650;SDS011;61944;52.538;6.108;2023-02-19T06:20:26;49.63;;;17.42;;
73650;SDS011;61944;52.538;6.108;2023-02-19T06:22:52;47.40;;;14.65;;
73650;SDS011;61944;52.538;6.108;2023-02-19T06:25:17;46.10;;;14.52;;
73650;SDS011;61944;52.538;6.108;2023-02-19T06:27:43;48.50;;;15.45;;
73650;SDS011;61944;52.538;6.108;2023-02-19T06:30:09;43.83;;;15.48;;
73650;SDS011;61944;52.538;6.108;2023-02-19T06:32:35;38.38;;;14.55;;
73650;SDS011;61944;52.538;6.108;2023-02-19T06:35:01;39.67;;;13.27;;
73650;SDS011;61944;52.538;6.108;2023-02-19T06:37:27;41.63;;;14.40;;
73650;SDS011;61944;52.538;6.108;2023-02-19T06:39:53;39.60;;;16.17;;
73650;SDS011;61944;52.538;6.108;2023-02-19T06:42:19;47.78;;;15.95;;
73650;SDS011;61944;52.538;6.108;2023-02-19T06:44:44;37.58;;;14.32;;
73650;SDS011;61944;52.538;6.108;2023-02-19T06:47:09;35.95;;;13.95;;
73650;SDS011;61944;52.538;6.108;2023-02-19T06:49:35;34.38;;;12.93;;
73650;SDS011;61944;52.538;6.108;2023-02-19T06:52:00;40.60;;;13.93;;
73650;SDS011;61944;52.538;6.108;2023-02-19T06:54:27;34.03;;;12.05;;
73650;SDS011;61944;52.538;6.108;2023-02-19T06:56:52;44.42;;;12.88;;
73650;SDS011;61944;52.538;6.108;2023-02-19T06:59:18;31.25;;;12.15;;
73650;SDS011;61944;52.538;6.108;2023-02-19T07:01:44;42.55;;;14.93;;
73650;SDS011;61944;52.538;6.108;2023-02-19T07:04:10;46.38;;;15.57;;
73650;SDS011;61944;52.538;6.108;2023-02-19T07:06:35;48.03;;;16.45;;
73650;SDS011;61944;52.538;6.108;2023-02-19T07:09:02;32.92;;;13.70;;
73650;SDS011;61944;52.538;6.108;2023-02-19T07:11:30;37.75;;;12.48;;
73650;SDS011;61944;52.538;6.108;2023-02-19T07:13:58;42.13;;;14.45;;
73650;SDS011;61944;52.538;6.108;2023-02-19T07:16:24;40.63;;;11.88;;
73650;SDS011;61944;52.538;6.108;2023-02-19T07:18:50;30.92;;;9.95;;
73650;SDS011;61944;52.538;6.108;2023-02-19T07:21:16;19.58;;;8.25;;
73650;SDS011;61944;52.538;6.108;2023-02-19T07:23:42;22.75;;;8.45;;
73650;SDS011;61944;52.538;6.108;2023-02-19T07:26:09;22.40;;;8.40;;
73650;SDS011;61944;52.538;6.108;2023-02-19T07:28:36;22.42;;;8.20;;
73650;SDS011;61944;52.538;6.108;2023-02-19T07:31:02;21.23;;;7.97;;
73650;SDS011;61944;52.538;6.108;2023-02-19T07:33:28;22.80;;;7.22;;
73650;SDS011;61944;52.538;6.108;2023-02-19T07:35:54;21.48;;;7.05;;
73650;SDS011;61944;52.538;6.108;2023-02-19T07:38:20;23.90;;;8.80;;
73650;SDS011;61944;52.538;6.108;2023-02-19T07:40:59;21.20;;;8.45;;
73650;SDS011;61944;52.538;6.108;2023-02-19T07:43:27;22.52;;;9.45;;
73650;SDS011;61944;52.538;6.108;2023-02-19T07:45:54;17.13;;;7.20;;
73650;SDS011;61944;52.538;6.108;2023-02-19T07:48:20;16.88;;;7.53;;
73650;SDS011;61944;52.538;6.108;2023-02-19T07:50:56;16.35;;;7.05;;
73650;SDS011;61944;52.538;6.108;2023-02-19T07:53:24;16.27;;;7.03;;
73650;SDS011;61944;52.538;6.108;2023-02-19T07:55:50;18.13;;;7.50;;
73650;SDS011;61944;52.538;6.108;2023-02-19T07:58:16;14.93;;;6.82;;
73650;SDS011;61944;52.538;6.108;2023-02-19T08:00:42;15.20;;;6.15;;
73650;SDS011;61944;52.538;6.108;2023-02-19T08:03:08;13.95;;;6.28;;
73650;SDS011;61944;52.538;6.108;2023-02-19T08:05:38;14.68;;;6.13;;
73650;SDS011;61944;52.538;6.108;2023-02-19T08:08:05;11.50;;;6.07;;
73650;SDS011;61944;52.538;6.108;2023-02-19T08:10:35;11.25;;;5.20;;
73650;SDS011;61944;52.538;6.108;2023-02-19T08:13:19;9.20;;;5.20;;
73650;SDS011;61944;52.538;6.108;2023-02-19T08:15:53;9.25;;;4.53;;
73650;SDS011;61944;52.538;6.108;2023-02-19T08:18:29;8.25;;;4.57;;
73650;SDS011;61944;52.538;6.108;2023-02-19T08:20:57;6.13;;;3.35;;
73650;SDS011;61944;52.538;6.108;2023-02-19T08:23:23;9.07;;;4.15;;
73650;SDS011;61944;52.538;6.108;2023-02-19T08:25:49;7.97;;;4.75;;
73650;SDS011;61944;52.538;6.108;2023-02-19T08:28:16;7.40;;;3.50;;
73650;SDS011;61944;52.538;6.108;2023-02-19T08:30:42;8.93;;;4.40;;
73650;SDS011;61944;52.538;6.108;2023-02-19T08:33:09;7.43;;;3.63;;
73650;SDS011;61944;52.538;6.108;2023-02-19T08:35:39;8.30;;;4.00;;
73650;SDS011;61944;52.538;6.108;2023-02-19T08:38:05;7.55;;;3.83;;
73650;SDS011;61944;52.538;6.108;2023-02-19T08:40:31;9.52;;;4.10;;
73650;SDS011;61944;52.538;6.108;2023-02-19T08:43:05;11.57;;;4.57;;
73650;SDS011;61944;52.538;6.108;2023-02-19T08:45:32;7.00;;;3.42;;
73650;SDS011;61944;52.538;6.108;2023-02-19T08:47:58;12.05;;;4.68;;
73650;SDS011;61944;52.538;6.108;2023-02-19T08:50:24;9.48;;;4.28;;
73650;SDS011;61944;52.538;6.108;2023-02-19T08:52:50;9.27;;;4.68;;
73650;SDS011;61944;52.538;6.108;2023-02-19T08:55:16;10.77;;;4.30;;
73650;SDS011;61944;52.538;6.108;2023-02-19T08:57:42;10.20;;;6.03;;
73650;SDS011;61944;52.538;6.108;2023-02-19T09:00:07;10.73;;;5.07;;
73650;SDS011;61944;52.538;6.108;2023-02-19T09:02:34;8.40;;;4.40;;
73650;SDS011;61944;52.538;6.108;2023-02-19T09:04:59;11.52;;;6.53;;
73650;SDS011;61944;52.538;6.108;2023-02-19T09:07:25;12.07;;;5.18;;
73650;SDS011;61944;52.538;6.108;2023-02-19T09:09:51;11.40;;;5.65;;
73650;SDS011;61944;52.538;6.108;2023-02-19T09:12:17;9.88;;;5.40;;
73650;SDS011;61944;52.538;6.108;2023-02-19T09:14:42;8.30;;;3.95;;
73650;SDS011;61944;52.538;6.108;2023-02-19T09:17:08;7.85;;;4.68;;
73650;SDS011;61944;52.538;6.108;2023-02-19T09:19:34;10.38;;;3.78;;
73650;SDS011;61944;52.538;6.108;2023-02-19T09:22:00;8.60;;;4.70;;
73650;SDS011;61944;52.538;6.108;2023-02-19T09:24:27;9.75;;;4.55;;
73650;SDS011;61944;52.538;6.108;2023-02-19T09:26:53;8.52;;;3.60;;
73650;SDS011;61944;52.538;6.108;2023-02-19T09:29:19;7.07;;;3.80;;
73650;SDS011;61944;52.538;6.108;2023-02-19T09:31:46;9.15;;;4.68;;
73650;SDS011;61944;52.538;6.108;2023-02-19T09:34:11;7.88;;;3.60;;
73650;SDS011;61944;52.538;6.108;2023-02-19T09:36:37;6.85;;;3.60;;
73650;SDS011;61944;52.538;6.108;2023-02-19T09:39:04;7.63;;;3.70;;
73650;SDS011;61944;52.538;6.108;2023-02-19T09:41:33;4.68;;;3.17;;
73650;SDS011;61944;52.538;6.108;2023-02-19T09:44:02;7.05;;;4.15;;
73650;SDS011;61944;52.538;6.108;2023-02-19T09:46:30;5.75;;;3.40;;
73650;SDS011;61944;52.538;6.108;2023-02-19T09:49:04;6.93;;;3.35;;
73650;SDS011;61944;52.538;6.108;2023-02-19T09:51:43;7.97;;;4.03;;
73650;SDS011;61944;52.538;6.108;2023-02-19T09:54:19;9.13;;;4.60;;
73650;SDS011;61944;52.538;6.108;2023-02-19T09:56:46;7.18;;;3.80;;
73650;SDS011;61944;52.538;6.108;2023-02-19T09:59:19;8.13;;;3.67;;
73650;SDS011;61944;52.538;6.108;2023-02-19T10:01:51;8.68;;;3.47;;
73650;SDS011;61944;52.538;6.108;2023-02-19T10:04:25;9.80;;;3.92;;
73650;SDS011;61944;52.538;6.108;2023-02-19T10:06:51;8.93;;;3.45;;
73650;SDS011;61944;52.538;6.108;2023-02-19T10:09:22;6.93;;;3.78;;
73650;SDS011;61944;52.538;6.108;2023-02-19T10:11:51;8.50;;;4.88;;
73650;SDS011;61944;52.538;6.108;2023-02-19T10:14:38;9.77;;;4.07;;
73650;SDS011;61944;52.538;6.108;2023-02-19T10:17:10;7.90;;;4.50;;
73650;SDS011;61944;52.538;6.108;2023-02-19T10:19:48;8.15;;;3.92;;
73650;SDS011;61944;52.538;6.108;2023-02-19T10:22:15;10.27;;;5.40;;
73650;SDS011;61944;52.538;6.108;2023-02-19T10:24:40;8.68;;;4.90;;
73650;SDS011;61944;52.538;6.108;2023-02-19T10:27:11;10.52;;;4.70;;
73650;SDS011;61944;52.538;6.108;2023-02-19T10:29:38;11.90;;;4.88;;
73650;SDS011;61944;52.538;6.108;2023-02-19T10:32:20;9.30;;;4.53;;
73650;SDS011;61944;52.538;6.108;2023-02-19T10:37:44;9.30;;;5.03;;
73650;SDS011;61944;52.538;6.108;2023-02-19T10:40:13;8.98;;;4.72;;
73650;SDS011;61944;52.538;6.108;2023-02-19T10:42:44;9.27;;;4.03;;
73650;SDS011;61944;52.538;6.108;2023-02-19T10:45:15;8.20;;;4.18;;
73650;SDS011;61944;52.538;6.108;2023-02-19T10:47:50;7.82;;;4.32;;
73650;SDS011;61944;52.538;6.108;2023-02-19T10:50:25;6.68;;;3.25;;
73650;SDS011;61944;52.538;6.108;2023-02-19T10:52:56;6.20;;;3.92;;
73650;SDS011;61944;52.538;6.108;2023-02-19T10:55:25;8.55;;;3.88;;
73650;SDS011;61944;52.538;6.108;2023-02-19T10:57:54;6.25;;;4.22;;
73650;SDS011;61944;52.538;6.108;2023-02-19T11:02:48;9.40;;;4.43;;
73650;SDS011;61944;52.538;6.108;2023-02-19T11:05:15;7.60;;;3.80;;
73650;SDS011;61944;52.538;6.108;2023-02-19T11:07:45;6.97;;;3.83;;
73650;SDS011;61944;52.538;6.108;2023-02-19T11:10:19;8.02;;;4.45;;
73650;SDS011;61944;52.538;6.108;2023-02-19T11:12:54;5.78;;;2.95;;
73650;SDS011;61944;52.538;6.108;2023-02-19T11:15:24;6.65;;;3.42;;
73650;SDS011;61944;52.538;6.108;2023-02-19T11:20:45;6.25;;;3.55;;
73650;SDS011;61944;52.538;6.108;2023-02-19T11:23:16;4.85;;;3.45;;
73650;SDS011;61944;52.538;6.108;2023-02-19T11:25:46;6.00;;;3.05;;
73650;SDS011;61944;52.538;6.108;2023-02-19T11:28:34;7.40;;;3.13;;
73650;SDS011;61944;52.538;6.108;2023-02-19T11:38:54;5.30;;;3.35;;
73650;SDS011;61944;52.538;6.108;2023-02-19T11:52:37;5.25;;;3.03;;
73650;SDS011;61944;52.538;6.108;2023-02-19T11:55:08;5.80;;;3.58;;
73650;SDS011;61944;52.538;6.108;2023-02-19T11:57:42;5.85;;;2.88;;
73650;SDS011;61944;52.538;6.108;2023-02-19T12:14:24;6.40;;;3.25;;
73650;SDS011;61944;52.538;6.108;2023-02-19T12:19:53;7.63;;;3.13;;
73650;SDS011;61944;52.538;6.108;2023-02-19T12:25:15;5.53;;;2.63;;
73650;SDS011;61944;52.538;6.108;2023-02-19T12:28:18;5.20;;;3.00;;
73650;SDS011;61944;52.538;6.108;2023-02-19T12:31:26;4.22;;;2.78;;
73650;SDS011;61944;52.538;6.108;2023-02-19T12:45:24;5.00;;;2.17;;
73650;SDS011;61944;52.538;6.108;2023-02-19T12:47:54;4.90;;;2.25;;
73650;SDS011;61944;52.538;6.108;2023-02-19T12:50:26;4.85;;;2.60;;
73650;SDS011;61944;52.538;6.108;2023-02-19T12:53:00;5.20;;;2.55;;
73650;SDS011;61944;52.538;6.108;2023-02-19T12:55:50;3.40;;;1.90;;
73650;SDS011;61944;52.538;6.108;2023-02-19T12:58:25;2.97;;;2.20;;
73650;SDS011;61944;52.538;6.108;2023-02-19T13:00:56;3.58;;;2.42;;
73650;SDS011;61944;52.538;6.108;2023-02-19T13:11:53;4.13;;;1.90;;
73650;SDS011;61944;52.538;6.108;2023-02-19T13:14:25;6.63;;;2.38;;
73650;SDS011;61944;52.538;6.108;2023-02-19T13:17:05;5.65;;;2.00;;
73650;SDS011;61944;52.538;6.108;2023-02-19T13:19:41;4.45;;;1.67;;
73650;SDS011;61944;52.538;6.108;2023-02-19T13:22:21;2.05;;;1.35;;
73650;SDS011;61944;52.538;6.108;2023-02-19T13:25:12;3.17;;;1.85;;
73650;SDS011;61944;52.538;6.108;2023-02-19T13:27:43;2.88;;;1.75;;
73650;SDS011;61944;52.538;6.108;2023-02-19T13:30:36;1.88;;;1.40;;
73650;SDS011;61944;52.538;6.108;2023-02-19T13:36:00;2.92;;;1.55;;
73650;SDS011;61944;52.538;6.108;2023-02-19T13:40:56;2.95;;;1.63;;
73650;SDS011;61944;52.538;6.108;2023-02-19T13:43:34;1.67;;;1.30;;
73650;SDS011;61944;52.538;6.108;2023-02-19T13:46:06;1.77;;;1.17;;
73650;SDS011;61944;52.538;6.108;2023-02-19T13:48:37;2.58;;;1.10;;
73650;SDS011;61944;52.538;6.108;2023-02-19T14:04:20;1.77;;;1.20;;
73650;SDS011;61944;52.538;6.108;2023-02-19T14:14:54;1.33;;;1.23;;
73650;SDS011;61944;52.538;6.108;2023-02-19T14:17:37;1.48;;;1.23;;
73650;SDS011;61944;52.538;6.108;2023-02-19T14:27:56;3.08;;;0.98;;
73650;SDS011;61944;52.538;6.108;2023-02-19T14:30:51;2.70;;;1.17;;
73650;SDS011;61944;52.538;6.108;2023-02-19T14:33:21;2.67;;;1.15;;
73650;SDS011;61944;52.538;6.108;2023-02-19T14:35:52;1.50;;;1.00;;
73650;SDS011;61944;52.538;6.108;2023-02-19T14:38:25;2.78;;;1.50;;
73650;SDS011;61944;52.538;6.108;2023-02-19T14:40:55;2.50;;;1.65;;
73650;SDS011;61944;52.538;6.108;2023-02-19T14:43:22;5.60;;;1.35;;
73650;SDS011;61944;52.538;6.108;2023-02-19T14:45:57;1.02;;;0.88;;
73650;SDS011;61944;52.538;6.108;2023-02-19T14:48:27;5.55;;;1.83;;
73650;SDS011;61944;52.538;6.108;2023-02-19T14:50:56;1.80;;;1.00;;
73650;SDS011;61944;52.538;6.108;2023-02-19T14:53:34;3.67;;;1.58;;
73650;SDS011;61944;52.538;6.108;2023-02-19T14:56:03;2.17;;;1.10;;
73650;SDS011;61944;52.538;6.108;2023-02-19T14:58:30;3.30;;;1.30;;
73650;SDS011;61944;52.538;6.108;2023-02-19T15:00:58;3.83;;;1.27;;
73650;SDS011;61944;52.538;6.108;2023-02-19T15:03:33;1.60;;;1.20;;
73650;SDS011;61944;52.538;6.108;2023-02-19T15:06:02;3.20;;;1.30;;
73650;SDS011;61944;52.538;6.108;2023-02-19T15:08:38;3.83;;;1.00;;
73650;SDS011;61944;52.538;6.108;2023-02-19T15:11:08;2.78;;;1.10;;
73650;SDS011;61944;52.538;6.108;2023-02-19T15:13:39;2.88;;;1.38;;
73650;SDS011;61944;52.538;6.108;2023-02-19T15:16:09;1.95;;;1.20;;
73650;SDS011;61944;52.538;6.108;2023-02-19T15:18:40;1.65;;;1.17;;
73650;SDS011;61944;52.538;6.108;2023-02-19T15:21:11;2.45;;;1.33;;
73650;SDS011;61944;52.538;6.108;2023-02-19T15:23:55;5.85;;;2.13;;
73650;SDS011;61944;52.538;6.108;2023-02-19T15:26:31;2.45;;;1.30;;
73650;SDS011;61944;52.538;6.108;2023-02-19T15:29:08;2.75;;;1.83;;
73650;SDS011;61944;52.538;6.108;2023-02-19T15:31:35;4.10;;;1.67;;
73650;SDS011;61944;52.538;6.108;2023-02-19T15:36:39;3.13;;;2.13;;
73650;SDS011;61944;52.538;6.108;2023-02-19T15:39:05;3.95;;;1.92;;
73650;SDS011;61944;52.538;6.108;2023-02-19T15:41:32;2.95;;;2.03;;
73650;SDS011;61944;52.538;6.108;2023-02-19T15:44:09;3.20;;;1.90;;
73650;SDS011;61944;52.538;6.108;2023-02-19T15:46:59;5.25;;;2.03;;
73650;SDS011;61944;52.538;6.108;2023-02-19T15:49:38;6.07;;;2.17;;
73650;SDS011;61944;52.538;6.108;2023-02-19T15:52:10;5.50;;;2.80;;
73650;SDS011;61944;52.538;6.108;2023-02-19T15:54:51;3.58;;;2.20;;
73650;SDS011;61944;52.538;6.108;2023-02-19T15:57:28;6.25;;;3.20;;
73650;SDS011;61944;52.538;6.108;2023-02-19T16:00:04;4.28;;;2.45;;
73650;SDS011;61944;52.538;6.108;2023-02-19T16:02:46;4.78;;;1.52;;
73650;SDS011;61944;52.538;6.108;2023-02-19T16:05:22;2.50;;;1.70;;
73650;SDS011;61944;52.538;6.108;2023-02-19T16:11:04;2.78;;;2.08;;
73650;SDS011;61944;52.538;6.108;2023-02-19T16:13:51;6.35;;;2.00;;
73650;SDS011;61944;52.538;6.108;2023-02-19T16:16:37;5.25;;;1.95;;
73650;SDS011;61944;52.538;6.108;2023-02-19T16:19:08;2.97;;;2.10;;
73650;SDS011;61944;52.538;6.108;2023-02-19T16:21:36;4.50;;;1.98;;
73650;SDS011;61944;52.538;6.108;2023-02-19T16:24:04;3.25;;;2.20;;
73650;SDS011;61944;52.538;6.108;2023-02-19T16:26:41;4.47;;;1.65;;
73650;SDS011;61944;52.538;6.108;2023-02-19T16:29:16;3.13;;;1.83;;
73650;SDS011;61944;52.538;6.108;2023-02-19T16:31:49;3.03;;;1.67;;
73650;SDS011;61944;52.538;6.108;2023-02-19T16:34:26;4.90;;;1.83;;
73650;SDS011;61944;52.538;6.108;2023-02-19T16:42:50;3.00;;;1.85;;
73650;SDS011;61944;52.538;6.108;2023-02-19T16:45:39;7.05;;;2.40;;
73650;SDS011;61944;52.538;6.108;2023-02-19T16:48:06;8.90;;;3.20;;
73650;SDS011;61944;52.538;6.108;2023-02-19T16:50:32;3.58;;;1.63;;
73650;SDS011;61944;52.538;6.108;2023-02-19T16:52:59;3.53;;;1.50;;
73650;SDS011;61944;52.538;6.108;2023-02-19T16:55:28;2.22;;;1.48;;
73650;SDS011;61944;52.538;6.108;2023-02-19T16:57:55;3.03;;;1.17;;
73650;SDS011;61944;52.538;6.108;2023-02-19T17:02:48;4.60;;;1.40;;
73650;SDS011;61944;52.538;6.108;2023-02-19T17:05:17;3.35;;;1.27;;
73650;SDS011;61944;52.538;6.108;2023-02-19T17:07:43;7.05;;;1.20;;
73650;SDS011;61944;52.538;6.108;2023-02-19T17:10:09;3.72;;;1.70;;
73650;SDS011;61944;52.538;6.108;2023-02-19T17:12:40;4.45;;;1.33;;
73650;SDS011;61944;52.538;6.108;2023-02-19T17:15:06;4.85;;;1.50;;
73650;SDS011;61944;52.538;6.108;2023-02-19T17:17:32;4.15;;;1.70;;
73650;SDS011;61944;52.538;6.108;2023-02-19T17:19:58;4.15;;;1.85;;